sensor_id;sensor_type;location;lat;lon;timestamp;P1;durP1;ratioP1;P2;durP2;ratioP2
58950;SDS011;44730;53.158;6.398;2023-03-01T00:01:10;14.32;;;9.60;;
58950;SDS011;44730;53.158;6.398;2023-03-01T00:03:39;12.27;;;8.70;;
58950;SDS011;44730;53.158;6.398;2023-03-01T00:06:05;18.55;;;10.38;;
58950;SDS011;44730;53.158;6.398;2023-03-01T00:08:31;14.95;;;9.60;;
58950;SDS011;44730;53.158;6.398;2023-03-01T00:11:14;14.00;;;9.38;;
58950;SDS011;44730;53.158;6.398;2023-03-01T00:13:43;16.45;;;9.90;;
58950;SDS011;44730;53.158;6.398;2023-03-01T00:16:10;15.40;;;9.43;;
58950;SDS011;44730;53.158;6.398;2023-03-01T00:18:58;13.68;;;9.13;;
58950;SDS011;44730;53.158;6.398;2023-03-01T00:21:25;15.38;;;9.13;;
58950;SDS011;44730;53.158;6.398;2023-03-01T00:23:51;13.95;;;9.35;;
58950;SDS011;44730;53.158;6.398;2023-03-01T00:26:19;13.70;;;9.10;;
58950;SDS011;44730;53.158;6.398;2023-03-01T00:28:45;12.90;;;8.90;;
58950;SDS011;44730;53.158;6.398;2023-03-01T00:31:13;14.40;;;8.82;;
58950;SDS011;44730;53.158;6.398;2023-03-01T00:33:41;14.43;;;9.35;;
58950;SDS011;44730;53.158;6.398;2023-03-01T00:36:07;16.45;;;9.35;;
58950;SDS011;44730;53.158;6.398;2023-03-01T00:38:35;14.38;;;9.35;;
58950;SDS011;44730;53.158;6.398;2023-03-01T00:41:10;15.07;;;8.88;;
58950;SDS011;44730;53.158;6.398;2023-03-01T00:43:38;14.15;;;8.80;;
58950;SDS011;44730;53.158;6.398;2023-03-01T00:46:05;12.07;;;8.82;;
58950;SDS011;44730;53.158;6.398;2023-03-01T00:48:43;12.10;;;8.13;;
58950;SDS011;44730;53.158;6.398;2023-03-01T00:51:14;13.15;;;8.45;;
58950;SDS011;44730;53.158;6.398;2023-03-01T00:53:45;16.48;;;9.05;;
58950;SDS011;44730;53.158;6.398;2023-03-01T00:56:12;13.77;;;9.38;;
58950;SDS011;44730;53.158;6.398;2023-03-01T00:58:39;12.45;;;8.50;;
58950;SDS011;44730;53.158;6.398;2023-03-01T01:01:09;14.32;;;9.30;;
58950;SDS011;44730;53.158;6.398;2023-03-01T01:03:52;21.63;;;9.85;;
58950;SDS011;44730;53.158;6.398;2023-03-01T01:06:20;14.63;;;9.57;;
58950;SDS011;44730;53.158;6.398;2023-03-01T01:08:49;15.95;;;9.75;;
58950;SDS011;44730;53.158;6.398;2023-03-01T01:11:15;15.73;;;9.48;;
58950;SDS011;44730;53.158;6.398;2023-03-01T01:13:43;14.40;;;9.13;;
58950;SDS011;44730;53.158;6.398;2023-03-01T01:16:10;12.52;;;8.65;;
58950;SDS011;44730;53.158;6.398;2023-03-01T01:18:36;13.75;;;8.75;;
58950;SDS011;44730;53.158;6.398;2023-03-01T01:21:05;12.80;;;8.93;;
58950;SDS011;44730;53.158;6.398;2023-03-01T01:23:33;14.02;;;9.27;;
58950;SDS011;44730;53.158;6.398;2023-03-01T01:26:03;15.05;;;9.45;;
58950;SDS011;44730;53.158;6.398;2023-03-01T01:28:33;15.02;;;10.60;;
58950;SDS011;44730;53.158;6.398;2023-03-01T01:30:59;14.07;;;9.23;;
58950;SDS011;44730;53.158;6.398;2023-03-01T01:33:25;15.20;;;9.90;;
58950;SDS011;44730;53.158;6.398;2023-03-01T01:35:51;14.95;;;9.85;;
58950;SDS011;44730;53.158;6.398;2023-03-01T01:38:17;15.90;;;10.10;;
58950;SDS011;44730;53.158;6.398;2023-03-01T01:40:48;13.52;;;9.48;;
58950;SDS011;44730;53.158;6.398;2023-03-01T01:43:26;13.73;;;9.82;;
58950;SDS011;44730;53.158;6.398;2023-03-01T01:45:58;14.52;;;10.45;;
58950;SDS011;44730;53.158;6.398;2023-03-01T01:48:29;15.38;;;9.40;;
58950;SDS011;44730;53.158;6.398;2023-03-01T01:51:09;15.63;;;10.18;;
58950;SDS011;44730;53.158;6.398;2023-03-01T01:53:43;16.33;;;9.32;;
58950;SDS011;44730;53.158;6.398;2023-03-01T01:56:11;12.73;;;8.18;;
58950;SDS011;44730;53.158;6.398;2023-03-01T01:58:40;16.77;;;9.27;;
58950;SDS011;44730;53.158;6.398;2023-03-01T02:01:09;14.80;;;9.48;;
58950;SDS011;44730;53.158;6.398;2023-03-01T02:03:36;15.35;;;10.15;;
58950;SDS011;44730;53.158;6.398;2023-03-01T02:08:44;22.27;;;12.32;;
58950;SDS011;44730;53.158;6.398;2023-03-01T02:11:12;19.92;;;11.68;;
58950;SDS011;44730;53.158;6.398;2023-03-01T02:13:42;101.88;;;19.25;;
58950;SDS011;44730;53.158;6.398;2023-03-01T02:16:08;36.97;;;14.38;;
58950;SDS011;44730;53.158;6.398;2023-03-01T02:18:35;35.97;;;14.25;;
58950;SDS011;44730;53.158;6.398;2023-03-01T02:24:01;19.73;;;11.77;;
58950;SDS011;44730;53.158;6.398;2023-03-01T02:26:45;68.03;;;15.52;;
58950;SDS011;44730;53.158;6.398;2023-03-01T02:29:15;81.88;;;15.57;;
58950;SDS011;44730;53.158;6.398;2023-03-01T02:31:40;52.90;;;14.23;;
58950;SDS011;44730;53.158;6.398;2023-03-01T02:34:07;31.83;;;13.95;;
58950;SDS011;44730;53.158;6.398;2023-03-01T02:36:44;31.65;;;14.13;;
58950;SDS011;44730;53.158;6.398;2023-03-01T02:39:18;25.90;;;13.30;;
58950;SDS011;44730;53.158;6.398;2023-03-01T02:41:52;50.15;;;14.20;;
58950;SDS011;44730;53.158;6.398;2023-03-01T02:44:22;83.78;;;19.25;;
58950;SDS011;44730;53.158;6.398;2023-03-01T02:46:49;60.75;;;15.30;;
58950;SDS011;44730;53.158;6.398;2023-03-01T02:49:36;221.80;;;21.48;;
58950;SDS011;44730;53.158;6.398;2023-03-01T02:55:11;116.35;;;18.02;;
58950;SDS011;44730;53.158;6.398;2023-03-01T02:57:40;77.53;;;16.77;;
58950;SDS011;44730;53.158;6.398;2023-03-01T03:00:09;67.32;;;15.65;;
58950;SDS011;44730;53.158;6.398;2023-03-01T03:02:44;88.53;;;16.92;;
58950;SDS011;44730;53.158;6.398;2023-03-01T03:05:13;40.03;;;13.77;;
58950;SDS011;44730;53.158;6.398;2023-03-01T03:07:42;110.45;;;19.85;;
58950;SDS011;44730;53.158;6.398;2023-03-01T03:10:11;147.80;;;22.02;;
58950;SDS011;44730;53.158;6.398;2023-03-01T03:12:39;132.32;;;22.35;;
58950;SDS011;44730;53.158;6.398;2023-03-01T03:15:07;52.20;;;15.65;;
58950;SDS011;44730;53.158;6.398;2023-03-01T03:17:35;76.07;;;17.98;;
58950;SDS011;44730;53.158;6.398;2023-03-01T03:20:02;105.15;;;19.88;;
58950;SDS011;44730;53.158;6.398;2023-03-01T03:22:29;71.85;;;18.08;;
58950;SDS011;44730;53.158;6.398;2023-03-01T03:24:56;55.05;;;15.95;;
58950;SDS011;44730;53.158;6.398;2023-03-01T03:27:22;137.13;;;20.95;;
58950;SDS011;44730;53.158;6.398;2023-03-01T03:29:47;43.15;;;15.07;;
58950;SDS011;44730;53.158;6.398;2023-03-01T03:32:13;22.52;;;13.90;;
58950;SDS011;44730;53.158;6.398;2023-03-01T03:34:41;17.70;;;11.80;;
58950;SDS011;44730;53.158;6.398;2023-03-01T03:37:07;21.58;;;13.32;;
58950;SDS011;44730;53.158;6.398;2023-03-01T03:39:53;20.75;;;13.13;;
58950;SDS011;44730;53.158;6.398;2023-03-01T03:42:20;21.27;;;12.43;;
58950;SDS011;44730;53.158;6.398;2023-03-01T03:44:47;19.52;;;12.45;;
58950;SDS011;44730;53.158;6.398;2023-03-01T03:47:13;21.83;;;12.77;;
58950;SDS011;44730;53.158;6.398;2023-03-01T03:49:39;22.00;;;13.80;;
58950;SDS011;44730;53.158;6.398;2023-03-01T03:52:05;18.80;;;12.70;;
58950;SDS011;44730;53.158;6.398;2023-03-01T03:54:39;17.35;;;12.43;;
58950;SDS011;44730;53.158;6.398;2023-03-01T03:57:05;18.92;;;12.23;;
58950;SDS011;44730;53.158;6.398;2023-03-01T03:59:32;20.30;;;12.38;;
58950;SDS011;44730;53.158;6.398;2023-03-01T04:01:58;19.98;;;12.30;;
58950;SDS011;44730;53.158;6.398;2023-03-01T04:04:23;17.73;;;12.23;;
58950;SDS011;44730;53.158;6.398;2023-03-01T04:06:49;19.38;;;12.45;;
58950;SDS011;44730;53.158;6.398;2023-03-01T04:09:15;16.98;;;10.32;;
58950;SDS011;44730;53.158;6.398;2023-03-01T04:11:41;15.02;;;10.60;;
58950;SDS011;44730;53.158;6.398;2023-03-01T04:14:06;15.00;;;10.27;;
58950;SDS011;44730;53.158;6.398;2023-03-01T04:16:32;17.77;;;11.10;;
58950;SDS011;44730;53.158;6.398;2023-03-01T04:19:04;205.80;;;22.35;;
58950;SDS011;44730;53.158;6.398;2023-03-01T04:21:31;48.80;;;13.80;;
58950;SDS011;44730;53.158;6.398;2023-03-01T04:23:57;61.55;;;16.08;;
58950;SDS011;44730;53.158;6.398;2023-03-01T04:26:22;20.88;;;14.65;;
58950;SDS011;44730;53.158;6.398;2023-03-01T04:28:48;153.55;;;22.55;;
58950;SDS011;44730;53.158;6.398;2023-03-01T04:31:16;132.20;;;25.17;;
58950;SDS011;44730;53.158;6.398;2023-03-01T04:33:53;119.80;;;19.42;;
58950;SDS011;44730;53.158;6.398;2023-03-01T04:36:21;125.35;;;21.05;;
58950;SDS011;44730;53.158;6.398;2023-03-01T04:38:49;219.68;;;28.23;;
58950;SDS011;44730;53.158;6.398;2023-03-01T04:41:18;299.17;;;34.72;;
58950;SDS011;44730;53.158;6.398;2023-03-01T04:43:45;207.88;;;23.20;;
58950;SDS011;44730;53.158;6.398;2023-03-01T04:46:12;245.48;;;23.17;;
58950;SDS011;44730;53.158;6.398;2023-03-01T04:48:42;168.32;;;22.23;;
58950;SDS011;44730;53.158;6.398;2023-03-01T04:51:08;194.73;;;22.48;;
58950;SDS011;44730;53.158;6.398;2023-03-01T04:53:35;271.10;;;30.58;;
58950;SDS011;44730;53.158;6.398;2023-03-01T04:56:04;196.02;;;22.65;;
58950;SDS011;44730;53.158;6.398;2023-03-01T04:58:30;247.23;;;22.92;;
58950;SDS011;44730;53.158;6.398;2023-03-01T05:00:56;155.98;;;18.25;;
58950;SDS011;44730;53.158;6.398;2023-03-01T05:03:22;167.35;;;16.33;;
58950;SDS011;44730;53.158;6.398;2023-03-01T05:05:49;89.90;;;15.65;;
58950;SDS011;44730;53.158;6.398;2023-03-01T05:08:16;114.47;;;16.58;;
58950;SDS011;44730;53.158;6.398;2023-03-01T05:10:50;104.72;;;14.45;;
58950;SDS011;44730;53.158;6.398;2023-03-01T05:13:18;141.82;;;15.63;;
58950;SDS011;44730;53.158;6.398;2023-03-01T05:15:48;94.57;;;14.30;;
58950;SDS011;44730;53.158;6.398;2023-03-01T05:18:25;82.18;;;14.02;;
58950;SDS011;44730;53.158;6.398;2023-03-01T05:20:52;98.03;;;13.20;;
58950;SDS011;44730;53.158;6.398;2023-03-01T05:23:23;53.50;;;11.63;;
58950;SDS011;44730;53.158;6.398;2023-03-01T05:25:49;50.38;;;10.35;;
58950;SDS011;44730;53.158;6.398;2023-03-01T05:28:17;52.15;;;10.70;;
58950;SDS011;44730;53.158;6.398;2023-03-01T05:30:45;49.47;;;10.15;;
58950;SDS011;44730;53.158;6.398;2023-03-01T05:33:11;91.07;;;12.73;;
58950;SDS011;44730;53.158;6.398;2023-03-01T05:35:40;74.00;;;12.43;;
58950;SDS011;44730;53.158;6.398;2023-03-01T05:38:08;94.57;;;14.40;;
58950;SDS011;44730;53.158;6.398;2023-03-01T05:40:38;14.85;;;9.23;;
58950;SDS011;44730;53.158;6.398;2023-03-01T05:43:10;24.23;;;9.10;;
58950;SDS011;44730;53.158;6.398;2023-03-01T05:45:37;12.50;;;9.23;;
58950;SDS011;44730;53.158;6.398;2023-03-01T05:48:04;15.27;;;9.23;;
58950;SDS011;44730;53.158;6.398;2023-03-01T05:50:32;14.70;;;8.60;;
58950;SDS011;44730;53.158;6.398;2023-03-01T05:53:11;15.38;;;10.05;;
58950;SDS011;44730;53.158;6.398;2023-03-01T05:55:42;15.25;;;10.27;;
58950;SDS011;44730;53.158;6.398;2023-03-01T05:58:11;14.45;;;9.57;;
58950;SDS011;44730;53.158;6.398;2023-03-01T06:00:39;13.35;;;9.40;;
58950;SDS011;44730;53.158;6.398;2023-03-01T06:03:08;14.63;;;9.73;;
58950;SDS011;44730;53.158;6.398;2023-03-01T06:05:36;13.55;;;9.50;;
58950;SDS011;44730;53.158;6.398;2023-03-01T06:08:04;11.80;;;8.27;;
58950;SDS011;44730;53.158;6.398;2023-03-01T06:10:30;12.50;;;8.90;;
58950;SDS011;44730;53.158;6.398;2023-03-01T06:12:57;28.55;;;10.52;;
58950;SDS011;44730;53.158;6.398;2023-03-01T06:15:23;24.90;;;10.77;;
58950;SDS011;44730;53.158;6.398;2023-03-01T06:17:53;16.23;;;9.95;;
58950;SDS011;44730;53.158;6.398;2023-03-01T06:20:22;16.23;;;10.30;;
58950;SDS011;44730;53.158;6.398;2023-03-01T06:22:49;16.17;;;10.00;;
58950;SDS011;44730;53.158;6.398;2023-03-01T06:25:20;14.35;;;10.00;;
58950;SDS011;44730;53.158;6.398;2023-03-01T06:27:47;18.92;;;11.27;;
58950;SDS011;44730;53.158;6.398;2023-03-01T06:30:14;93.22;;;15.30;;
58950;SDS011;44730;53.158;6.398;2023-03-01T06:32:42;65.25;;;14.18;;
58950;SDS011;44730;53.158;6.398;2023-03-01T06:35:09;143.63;;;20.75;;
58950;SDS011;44730;53.158;6.398;2023-03-01T06:37:38;211.10;;;26.00;;
58950;SDS011;44730;53.158;6.398;2023-03-01T06:40:04;169.00;;;21.02;;
58950;SDS011;44730;53.158;6.398;2023-03-01T06:42:37;15.68;;;10.35;;
58950;SDS011;44730;53.158;6.398;2023-03-01T06:45:04;14.35;;;9.68;;
58950;SDS011;44730;53.158;6.398;2023-03-01T06:47:31;14.20;;;10.30;;
58950;SDS011;44730;53.158;6.398;2023-03-01T06:50:01;13.38;;;9.70;;
58950;SDS011;44730;53.158;6.398;2023-03-01T06:52:27;14.07;;;9.57;;
58950;SDS011;44730;53.158;6.398;2023-03-01T06:54:53;16.00;;;9.27;;
58950;SDS011;44730;53.158;6.398;2023-03-01T06:57:20;12.48;;;9.38;;
58950;SDS011;44730;53.158;6.398;2023-03-01T06:59:46;14.82;;;9.38;;
58950;SDS011;44730;53.158;6.398;2023-03-01T07:02:19;12.60;;;9.13;;
58950;SDS011;44730;53.158;6.398;2023-03-01T07:04:48;17.35;;;8.77;;
58950;SDS011;44730;53.158;6.398;2023-03-01T07:07:15;14.25;;;9.65;;
58950;SDS011;44730;53.158;6.398;2023-03-01T07:09:41;12.05;;;8.63;;
58950;SDS011;44730;53.158;6.398;2023-03-01T07:12:06;14.07;;;9.25;;
58950;SDS011;44730;53.158;6.398;2023-03-01T07:14:33;13.27;;;9.20;;
58950;SDS011;44730;53.158;6.398;2023-03-01T07:16:59;14.82;;;9.07;;
58950;SDS011;44730;53.158;6.398;2023-03-01T07:19:25;15.52;;;9.88;;
58950;SDS011;44730;53.158;6.398;2023-03-01T07:21:51;12.75;;;8.60;;
58950;SDS011;44730;53.158;6.398;2023-03-01T07:24:18;15.13;;;9.30;;
58950;SDS011;44730;53.158;6.398;2023-03-01T07:26:43;19.75;;;11.70;;
58950;SDS011;44730;53.158;6.398;2023-03-01T07:29:10;14.82;;;10.73;;
58950;SDS011;44730;53.158;6.398;2023-03-01T07:31:37;14.05;;;9.93;;
58950;SDS011;44730;53.158;6.398;2023-03-01T07:34:03;13.98;;;9.48;;
58950;SDS011;44730;53.158;6.398;2023-03-01T07:36:29;14.15;;;9.57;;
58950;SDS011;44730;53.158;6.398;2023-03-01T07:38:55;14.27;;;9.75;;
58950;SDS011;44730;53.158;6.398;2023-03-01T07:41:20;14.18;;;9.77;;
58950;SDS011;44730;53.158;6.398;2023-03-01T07:43:46;13.23;;;8.45;;
58950;SDS011;44730;53.158;6.398;2023-03-01T07:46:12;14.52;;;10.02;;
58950;SDS011;44730;53.158;6.398;2023-03-01T07:48:38;13.10;;;9.15;;
58950;SDS011;44730;53.158;6.398;2023-03-01T07:51:04;12.02;;;9.20;;
58950;SDS011;44730;53.158;6.398;2023-03-01T07:53:31;11.52;;;9.50;;
58950;SDS011;44730;53.158;6.398;2023-03-01T07:56:09;14.95;;;9.75;;
58950;SDS011;44730;53.158;6.398;2023-03-01T07:58:37;14.05;;;9.15;;
58950;SDS011;44730;53.158;6.398;2023-03-01T08:01:04;12.90;;;9.60;;
58950;SDS011;44730;53.158;6.398;2023-03-01T08:03:31;13.57;;;9.70;;
58950;SDS011;44730;53.158;6.398;2023-03-01T08:06:01;13.52;;;10.25;;
58950;SDS011;44730;53.158;6.398;2023-03-01T08:08:28;14.73;;;10.88;;
58950;SDS011;44730;53.158;6.398;2023-03-01T08:11:03;14.43;;;10.82;;
58950;SDS011;44730;53.158;6.398;2023-03-01T08:13:31;16.73;;;11.25;;
58950;SDS011;44730;53.158;6.398;2023-03-01T08:16:02;15.50;;;11.43;;
58950;SDS011;44730;53.158;6.398;2023-03-01T08:18:30;17.67;;;12.02;;
58950;SDS011;44730;53.158;6.398;2023-03-01T08:21:00;17.13;;;12.00;;
58950;SDS011;44730;53.158;6.398;2023-03-01T08:23:30;18.85;;;13.05;;
58950;SDS011;44730;53.158;6.398;2023-03-01T08:26:02;19.70;;;12.60;;
58950;SDS011;44730;53.158;6.398;2023-03-01T08:28:37;17.15;;;12.40;;
58950;SDS011;44730;53.158;6.398;2023-03-01T08:31:20;16.65;;;11.85;;
58950;SDS011;44730;53.158;6.398;2023-03-01T08:33:50;18.70;;;11.88;;
58950;SDS011;44730;53.158;6.398;2023-03-01T08:36:27;17.27;;;12.60;;
58950;SDS011;44730;53.158;6.398;2023-03-01T08:38:54;17.60;;;12.70;;
58950;SDS011;44730;53.158;6.398;2023-03-01T08:41:20;19.92;;;13.45;;
58950;SDS011;44730;53.158;6.398;2023-03-01T08:43:46;19.65;;;13.07;;
58950;SDS011;44730;53.158;6.398;2023-03-01T08:46:12;20.02;;;13.85;;
58950;SDS011;44730;53.158;6.398;2023-03-01T08:48:40;20.65;;;14.05;;
58950;SDS011;44730;53.158;6.398;2023-03-01T08:51:15;18.85;;;12.95;;
58950;SDS011;44730;53.158;6.398;2023-03-01T08:53:43;19.95;;;14.02;;
58950;SDS011;44730;53.158;6.398;2023-03-01T08:56:09;20.05;;;13.38;;
58950;SDS011;44730;53.158;6.398;2023-03-01T08:58:36;18.38;;;13.65;;
58950;SDS011;44730;53.158;6.398;2023-03-01T09:01:09;19.20;;;14.30;;
58950;SDS011;44730;53.158;6.398;2023-03-01T09:03:36;19.80;;;14.60;;
58950;SDS011;44730;53.158;6.398;2023-03-01T09:06:02;20.48;;;13.70;;
58950;SDS011;44730;53.158;6.398;2023-03-01T09:08:29;17.10;;;13.88;;
58950;SDS011;44730;53.158;6.398;2023-03-01T09:10:55;18.63;;;14.40;;
58950;SDS011;44730;53.158;6.398;2023-03-01T09:13:21;20.15;;;15.30;;
58950;SDS011;44730;53.158;6.398;2023-03-01T09:15:50;18.17;;;13.63;;
58950;SDS011;44730;53.158;6.398;2023-03-01T09:18:17;17.67;;;14.75;;
58950;SDS011;44730;53.158;6.398;2023-03-01T09:20:43;18.02;;;14.52;;
58950;SDS011;44730;53.158;6.398;2023-03-01T09:23:10;16.67;;;13.65;;
58950;SDS011;44730;53.158;6.398;2023-03-01T09:25:35;20.45;;;15.60;;
58950;SDS011;44730;53.158;6.398;2023-03-01T09:28:03;17.58;;;14.43;;
58950;SDS011;44730;53.158;6.398;2023-03-01T09:30:29;20.00;;;15.00;;
58950;SDS011;44730;53.158;6.398;2023-03-01T09:32:56;17.08;;;14.07;;
58950;SDS011;44730;53.158;6.398;2023-03-01T09:35:22;17.80;;;15.85;;
58950;SDS011;44730;53.158;6.398;2023-03-01T09:37:48;19.17;;;16.35;;
58950;SDS011;44730;53.158;6.398;2023-03-01T09:40:21;18.58;;;14.70;;
58950;SDS011;44730;53.158;6.398;2023-03-01T09:45:51;19.17;;;15.00;;
58950;SDS011;44730;53.158;6.398;2023-03-01T09:48:21;18.77;;;16.15;;
58950;SDS011;44730;53.158;6.398;2023-03-01T09:50:53;16.67;;;14.23;;
58950;SDS011;44730;53.158;6.398;2023-03-01T09:53:20;14.85;;;13.27;;
58950;SDS011;44730;53.158;6.398;2023-03-01T09:55:56;15.85;;;13.90;;
58950;SDS011;44730;53.158;6.398;2023-03-01T10:04:48;13.85;;;11.77;;
58950;SDS011;44730;53.158;6.398;2023-03-01T10:10:05;13.95;;;12.48;;
58950;SDS011;44730;53.158;6.398;2023-03-01T10:12:37;13.95;;;11.73;;
58950;SDS011;44730;53.158;6.398;2023-03-01T10:15:11;13.50;;;11.65;;
58950;SDS011;44730;53.158;6.398;2023-03-01T10:20:29;14.68;;;12.13;;
58950;SDS011;44730;53.158;6.398;2023-03-01T10:23:08;14.65;;;13.02;;
58950;SDS011;44730;53.158;6.398;2023-03-01T10:30:44;15.23;;;13.57;;
58950;SDS011;44730;53.158;6.398;2023-03-01T10:35:43;13.77;;;12.25;;
58950;SDS011;44730;53.158;6.398;2023-03-01T10:38:09;12.82;;;11.43;;
58950;SDS011;44730;53.158;6.398;2023-03-01T10:40:54;13.32;;;11.90;;
58950;SDS011;44730;53.158;6.398;2023-03-01T10:43:27;13.70;;;12.38;;
58950;SDS011;44730;53.158;6.398;2023-03-01T10:46:21;15.35;;;12.40;;
58950;SDS011;44730;53.158;6.398;2023-03-01T10:51:45;17.08;;;13.57;;
58950;SDS011;44730;53.158;6.398;2023-03-01T10:56:56;16.55;;;13.05;;
58950;SDS011;44730;53.158;6.398;2023-03-01T10:59:29;18.42;;;13.18;;
58950;SDS011;44730;53.158;6.398;2023-03-01T11:04:55;17.03;;;12.47;;
58950;SDS011;44730;53.158;6.398;2023-03-01T11:10:29;15.05;;;12.43;;
58950;SDS011;44730;53.158;6.398;2023-03-01T11:13:33;16.08;;;12.27;;
58950;SDS011;44730;53.158;6.398;2023-03-01T11:16:02;16.42;;;11.65;;
58950;SDS011;44730;53.158;6.398;2023-03-01T11:18:30;14.88;;;10.95;;
58950;SDS011;44730;53.158;6.398;2023-03-01T11:20:56;17.00;;;11.82;;
58950;SDS011;44730;53.158;6.398;2023-03-01T11:23:25;15.80;;;11.68;;
58950;SDS011;44730;53.158;6.398;2023-03-01T11:26:04;16.23;;;11.25;;
58950;SDS011;44730;53.158;6.398;2023-03-01T11:28:33;15.45;;;10.30;;
58950;SDS011;44730;53.158;6.398;2023-03-01T11:31:09;14.60;;;10.52;;
58950;SDS011;44730;53.158;6.398;2023-03-01T11:33:51;13.60;;;10.55;;
58950;SDS011;44730;53.158;6.398;2023-03-01T11:39:17;12.85;;;8.90;;
58950;SDS011;44730;53.158;6.398;2023-03-01T11:41:51;16.13;;;10.73;;
58950;SDS011;44730;53.158;6.398;2023-03-01T11:44:28;14.43;;;10.13;;
58950;SDS011;44730;53.158;6.398;2023-03-01T11:55:28;13.15;;;9.45;;
58950;SDS011;44730;53.158;6.398;2023-03-01T11:58:41;12.77;;;9.98;;
58950;SDS011;44730;53.158;6.398;2023-03-01T12:09:13;14.00;;;9.10;;
58950;SDS011;44730;53.158;6.398;2023-03-01T12:15:11;12.23;;;8.93;;
58950;SDS011;44730;53.158;6.398;2023-03-01T12:26:13;11.32;;;9.13;;
58950;SDS011;44730;53.158;6.398;2023-03-01T12:43:57;13.65;;;10.27;;
58950;SDS011;44730;53.158;6.398;2023-03-01T12:51:47;10.80;;;9.70;;
58950;SDS011;44730;53.158;6.398;2023-03-01T12:54:28;11.10;;;9.90;;
58950;SDS011;44730;53.158;6.398;2023-03-01T12:57:02;11.57;;;10.00;;
58950;SDS011;44730;53.158;6.398;2023-03-01T12:59:39;13.85;;;10.15;;
58950;SDS011;44730;53.158;6.398;2023-03-01T13:02:31;12.90;;;10.90;;
58950;SDS011;44730;53.158;6.398;2023-03-01T13:05:24;12.48;;;10.27;;
58950;SDS011;44730;53.158;6.398;2023-03-01T13:08:29;10.98;;;9.88;;
58950;SDS011;44730;53.158;6.398;2023-03-01T13:11:14;11.63;;;10.43;;
58950;SDS011;44730;53.158;6.398;2023-03-01T13:13:45;12.38;;;10.20;;
58950;SDS011;44730;53.158;6.398;2023-03-01T13:21:43;11.52;;;10.15;;
58950;SDS011;44730;53.158;6.398;2023-03-01T13:29:48;11.48;;;10.32;;
58950;SDS011;44730;53.158;6.398;2023-03-01T13:32:24;10.10;;;9.10;;
58950;SDS011;44730;53.158;6.398;2023-03-01T13:37:42;11.70;;;8.98;;
58950;SDS011;44730;53.158;6.398;2023-03-01T13:42:47;9.77;;;8.77;;
58950;SDS011;44730;53.158;6.398;2023-03-01T13:45:19;10.40;;;8.90;;
58950;SDS011;44730;53.158;6.398;2023-03-01T13:48:15;9.88;;;8.88;;
58950;SDS011;44730;53.158;6.398;2023-03-01T13:50:51;10.20;;;8.93;;
58950;SDS011;44730;53.158;6.398;2023-03-01T13:53:25;10.40;;;9.30;;
58950;SDS011;44730;53.158;6.398;2023-03-01T13:56:28;9.38;;;8.38;;
58950;SDS011;44730;53.158;6.398;2023-03-01T14:01:27;11.43;;;9.40;;
58950;SDS011;44730;53.158;6.398;2023-03-01T14:03:55;10.77;;;9.68;;
58950;SDS011;44730;53.158;6.398;2023-03-01T14:06:24;11.15;;;10.02;;
58950;SDS011;44730;53.158;6.398;2023-03-01T14:09:00;11.05;;;9.93;;
58950;SDS011;44730;53.158;6.398;2023-03-01T14:14:23;12.25;;;9.52;;
58950;SDS011;44730;53.158;6.398;2023-03-01T14:19:25;10.40;;;9.32;;
58950;SDS011;44730;53.158;6.398;2023-03-01T14:25:03;13.13;;;9.73;;
58950;SDS011;44730;53.158;6.398;2023-03-01T14:27:40;11.88;;;9.30;;
58950;SDS011;44730;53.158;6.398;2023-03-01T14:32:56;11.20;;;10.00;;
58950;SDS011;44730;53.158;6.398;2023-03-01T14:35:28;11.10;;;9.95;;
58950;SDS011;44730;53.158;6.398;2023-03-01T14:37:56;11.60;;;9.85;;
58950;SDS011;44730;53.158;6.398;2023-03-01T14:40:24;10.82;;;9.70;;
58950;SDS011;44730;53.158;6.398;2023-03-01T14:42:56;10.57;;;9.43;;
58950;SDS011;44730;53.158;6.398;2023-03-01T14:45:26;10.65;;;9.52;;
58950;SDS011;44730;53.158;6.398;2023-03-01T14:47:54;11.38;;;9.95;;
58950;SDS011;44730;53.158;6.398;2023-03-01T14:50:30;11.30;;;9.50;;
58950;SDS011;44730;53.158;6.398;2023-03-01T14:52:58;10.80;;;9.63;;
58950;SDS011;44730;53.158;6.398;2023-03-01T14:57:59;13.90;;;10.23;;
58950;SDS011;44730;53.158;6.398;2023-03-01T15:00:32;13.32;;;10.70;;
58950;SDS011;44730;53.158;6.398;2023-03-01T15:03:11;11.57;;;9.63;;
58950;SDS011;44730;53.158;6.398;2023-03-01T15:05:43;13.33;;;9.80;;
58950;SDS011;44730;53.158;6.398;2023-03-01T15:08:16;12.98;;;9.18;;
58950;SDS011;44730;53.158;6.398;2023-03-01T15:10:55;12.65;;;9.98;;
58950;SDS011;44730;53.158;6.398;2023-03-01T15:13:24;14.52;;;10.25;;
58950;SDS011;44730;53.158;6.398;2023-03-01T15:15:51;14.48;;;10.13;;
58950;SDS011;44730;53.158;6.398;2023-03-01T15:18:28;12.93;;;9.32;;
58950;SDS011;44730;53.158;6.398;2023-03-01T15:20:54;14.15;;;10.73;;
58950;SDS011;44730;53.158;6.398;2023-03-01T15:23:30;13.98;;;10.25;;
58950;SDS011;44730;53.158;6.398;2023-03-01T15:25:56;14.75;;;10.18;;
58950;SDS011;44730;53.158;6.398;2023-03-01T15:28:25;12.93;;;9.15;;
58950;SDS011;44730;53.158;6.398;2023-03-01T15:30:55;14.68;;;9.80;;
58950;SDS011;44730;53.158;6.398;2023-03-01T15:33:30;14.00;;;10.00;;
58950;SDS011;44730;53.158;6.398;2023-03-01T15:35:59;14.40;;;9.25;;
58950;SDS011;44730;53.158;6.398;2023-03-01T15:38:34;15.40;;;10.45;;
58950;SDS011;44730;53.158;6.398;2023-03-01T15:41:22;17.75;;;9.43;;
58950;SDS011;44730;53.158;6.398;2023-03-01T15:43:53;15.85;;;9.63;;
58950;SDS011;44730;53.158;6.398;2023-03-01T15:46:22;15.30;;;10.20;;
58950;SDS011;44730;53.158;6.398;2023-03-01T15:49:27;14.98;;;9.50;;
58950;SDS011;44730;53.158;6.398;2023-03-01T15:52:04;13.00;;;9.32;;
58950;SDS011;44730;53.158;6.398;2023-03-01T15:54:36;13.60;;;9.32;;
58950;SDS011;44730;53.158;6.398;2023-03-01T15:57:07;16.48;;;9.65;;
58950;SDS011;44730;53.158;6.398;2023-03-01T15:59:37;13.82;;;9.13;;
58950;SDS011;44730;53.158;6.398;2023-03-01T16:02:08;14.52;;;9.27;;
58950;SDS011;44730;53.158;6.398;2023-03-01T16:04:36;13.73;;;8.95;;
58950;SDS011;44730;53.158;6.398;2023-03-01T16:07:02;15.90;;;10.07;;
58950;SDS011;44730;53.158;6.398;2023-03-01T16:09:29;13.35;;;9.90;;
58950;SDS011;44730;53.158;6.398;2023-03-01T16:11:54;14.40;;;9.70;;
58950;SDS011;44730;53.158;6.398;2023-03-01T16:14:20;14.13;;;9.00;;
58950;SDS011;44730;53.158;6.398;2023-03-01T16:16:46;12.50;;;8.98;;
58950;SDS011;44730;53.158;6.398;2023-03-01T16:19:13;14.82;;;9.90;;
58950;SDS011;44730;53.158;6.398;2023-03-01T16:21:39;12.63;;;8.95;;
58950;SDS011;44730;53.158;6.398;2023-03-01T16:24:07;15.55;;;10.07;;
58950;SDS011;44730;53.158;6.398;2023-03-01T16:26:34;14.13;;;10.55;;
58950;SDS011;44730;53.158;6.398;2023-03-01T16:29:01;15.02;;;9.85;;
58950;SDS011;44730;53.158;6.398;2023-03-01T16:31:27;14.55;;;10.02;;
58950;SDS011;44730;53.158;6.398;2023-03-01T16:33:55;13.48;;;9.45;;
58950;SDS011;44730;53.158;6.398;2023-03-01T16:36:23;13.30;;;9.85;;
58950;SDS011;44730;53.158;6.398;2023-03-01T16:38:53;16.95;;;10.20;;
58950;SDS011;44730;53.158;6.398;2023-03-01T16:41:20;14.32;;;10.13;;
58950;SDS011;44730;53.158;6.398;2023-03-01T16:43:47;14.30;;;10.10;;
58950;SDS011;44730;53.158;6.398;2023-03-01T16:46:18;13.95;;;10.15;;
58950;SDS011;44730;53.158;6.398;2023-03-01T16:48:45;18.05;;;11.43;;
58950;SDS011;44730;53.158;6.398;2023-03-01T16:51:16;15.35;;;10.73;;